Terminal Aerodrome Forecast
Issued by NWS

Home | Current Version | Previous Version | Text Only | Print | Product List | Glossary On
Versions: 1 2 3 4 5 6 7 8 9 10 11 12 13 14 15 16 17 18 19
000
FTUS44 KEPZ 190500
TAFDMN
TAF
KDMN 190540Z 1906/2006 VRB05KT P6SM VCSH BKN020
     FM190900 23004KT 3SM BR BKN020
     FM191300 31006KT P6SM SCT050 BKN150
     FM200200 30004KT P6SM FEW160 SCT250=

USA.gov is the U.S. government's official web portal to all federal, state and local government web resources and services.